Página principal
METAR-TAF:

METAR-TAF

Aeroportos :

Base aérea

Morón de la Frontera, Espanha

latitude: 37-09N, longitude: 005-37W, altura: 87 m

Observação actual do tempo

O boletim foi feito há 37 minutos, às 18:00 UTC
Vento 4 kt de norte
Temperatura 13°C
Humidade 58%
Pressão 1028 hPa
Visibilidade 10 km ou mais
sem nuvens abaixo de 1500 metros e sem cumulonimbus

METAR: LEMO 171800Z 01004KT CAVOK 13/05 Q1028 NOSIG

Hora: 19:37 (18:37 UTC)

Previsão

O boletim foi feito há 4 horas e 37 minutos, às 14:00 UTC
Previsão válida de 17 às 15 UTC a 18 às 15 UTC
Vento 7 kt de es-nordeste
Visibilidade 10 km ou mais
sem nuvens abaixo de 1500 metros e sem cumulonimbus

TAF: LEMO 171400Z 1715/1815 06007KT CAVOK TX19/1715Z TN04/1806Z

Observações e previsões do tempo de mais de 4000 aeroportos (mensagens METAR e TAF).

As estações disponíveis são os pontos amarelos e vermelhos sobre o mapa.

Mova o rato sobre o mapa para ver o nome da estação.

Depois clique no ponto para visualizar as observações e previsões meteorológicas.

Para alterar o mapa : clique nos botões verdes com uma cruz preta para aumentar o zoom; no botão verde com uma pitada de zoom; ou nas setas verdes para mapas adjacentes.


METAR-TAF: